createdAt,value
2018-12-05T00:00:17.724Z,1.90
2018-12-05T00:02:46.258Z,2.07
2018-12-05T00:05:14.766Z,1.93
2018-12-05T00:07:43.306Z,1.80
2018-12-05T00:10:11.942Z,2.02
2018-12-05T00:12:40.802Z,2.03
2018-12-05T00:15:09.378Z,2.40
2018-12-05T00:17:38.366Z,2.20
2018-12-05T00:20:06.926Z,3.17
2018-12-05T00:22:35.870Z,2.30
2018-12-05T00:25:04.677Z,1.73
2018-12-05T00:27:33.218Z,2.33
2018-12-05T00:30:02.083Z,2.20
2018-12-05T00:32:30.645Z,2.10
2018-12-05T00:34:59.214Z,1.97
2018-12-05T00:37:27.757Z,1.70
2018-12-05T00:39:56.333Z,2.23
2018-12-05T00:42:24.936Z,1.82
2018-12-05T00:44:53.495Z,1.60
2018-12-05T00:47:22.159Z,1.80
2018-12-05T00:49:50.710Z,2.30
2018-12-05T00:52:19.892Z,1.73
2018-12-05T00:54:48.508Z,1.77
2018-12-05T00:57:17.140Z,2.07
2018-12-05T00:59:45.748Z,1.80
2018-12-05T01:02:14.332Z,1.77
2018-12-05T01:04:42.892Z,2.07
2018-12-05T01:07:11.848Z,1.57
2018-12-05T01:09:40.811Z,1.80
2018-12-05T01:12:11.087Z,2.10
2018-12-05T01:14:39.663Z,1.93
2018-12-05T01:17:08.292Z,1.87
2018-12-05T01:19:37.196Z,2.00
2018-12-05T01:22:05.848Z,1.77
2018-12-05T01:24:34.647Z,1.87
2018-12-05T01:27:03.203Z,1.80
2018-12-05T01:29:31.936Z,2.03
2018-12-05T01:32:00.895Z,1.83
2018-12-05T01:34:29.432Z,1.90
2018-12-05T01:36:58.243Z,1.80
2018-12-05T01:39:26.859Z,1.50
2018-12-05T01:41:55.415Z,1.50
2018-12-05T01:44:23.984Z,1.73
2018-12-05T01:46:52.552Z,2.00
2018-12-05T01:49:21.224Z,1.80
2018-12-05T01:51:49.748Z,1.30
2018-12-05T01:54:18.628Z,1.53
2018-12-05T01:56:47.355Z,1.53
2018-12-05T01:59:16.180Z,1.60
2018-12-05T02:01:44.736Z,1.07
2018-12-05T02:04:13.331Z,1.60
2018-12-05T02:06:42.055Z,1.40
2018-12-05T02:09:10.669Z,1.57
2018-12-05T02:11:39.243Z,1.40
2018-12-05T02:14:07.868Z,1.43
2018-12-05T02:16:36.523Z,1.70
2018-12-05T02:19:05.336Z,1.30
2018-12-05T02:21:34.196Z,1.40
2018-12-05T02:24:02.819Z,1.40
2018-12-05T02:26:31.375Z,1.33
2018-12-05T02:29:00.309Z,1.37
2018-12-05T02:31:28.916Z,1.60
2018-12-05T02:33:57.499Z,1.47
2018-12-05T02:36:26.115Z,0.90
2018-12-05T02:38:54.739Z,1.50
2018-12-05T02:41:23.287Z,0.97
2018-12-05T02:43:51.955Z,1.53
2018-12-05T02:46:20.597Z,1.20
2018-12-05T02:48:49.220Z,1.40
2018-12-05T02:51:18.139Z,1.17
2018-12-05T02:53:46.747Z,1.53
2018-12-05T02:56:15.370Z,1.35
2018-12-05T02:58:43.924Z,1.40
2018-12-05T03:01:12.523Z,1.70
2018-12-05T03:03:41.091Z,1.57
2018-12-05T03:06:09.823Z,1.20
2018-12-05T03:08:38.440Z,1.30
2018-12-05T03:11:06.951Z,1.33
2018-12-05T03:13:35.572Z,1.30
2018-12-05T03:16:04.798Z,1.37
2018-12-05T03:18:33.912Z,1.27
2018-12-05T03:21:02.519Z,1.50
2018-12-05T03:23:31.166Z,1.00
2018-12-05T03:25:59.750Z,1.37
2018-12-05T03:28:28.586Z,1.40
2018-12-05T03:30:57.475Z,0.80
2018-12-05T03:33:26.343Z,1.17
2018-12-05T03:35:54.874Z,1.37
2018-12-05T03:38:23.445Z,1.20
2018-12-05T03:40:52.410Z,1.03
2018-12-05T03:43:21.118Z,1.13
2018-12-05T03:45:49.769Z,1.40
2018-12-05T03:48:18.337Z,1.57
2018-12-05T03:50:47.137Z,1.40
2018-12-05T03:53:15.720Z,1.40
2018-12-05T03:55:44.253Z,1.20
2018-12-05T03:58:13.410Z,1.00
2018-12-05T04:00:41.964Z,1.00
2018-12-05T04:03:10.549Z,1.07
2018-12-05T04:05:39.101Z,1.10
2018-12-05T04:08:07.722Z,1.37
2018-12-05T04:10:36.271Z,1.27
2018-12-05T04:13:04.801Z,1.17
2018-12-05T04:15:33.553Z,0.90
2018-12-05T04:18:02.147Z,1.20
2018-12-05T04:20:30.685Z,1.70
2018-12-05T04:22:59.309Z,1.90
2018-12-05T04:25:27.853Z,1.63
2018-12-05T04:27:56.757Z,1.70
2018-12-05T04:30:25.317Z,2.15
2018-12-05T04:32:53.861Z,2.20
2018-12-05T04:35:22.448Z,1.98
2018-12-05T04:37:52.691Z,1.40
2018-12-05T04:40:19.642Z,1.90
2018-12-05T04:42:48.248Z,1.60
2018-12-05T04:45:16.850Z,1.40
2018-12-05T04:47:45.609Z,1.77
2018-12-05T04:50:14.166Z,1.53
2018-12-05T04:52:43.049Z,1.40
2018-12-05T04:55:11.982Z,1.30
2018-12-05T04:57:40.554Z,1.63
2018-12-05T05:00:09.402Z,1.73
2018-12-05T05:02:38.228Z,1.50
2018-12-05T05:05:06.894Z,1.40
2018-12-05T05:07:35.597Z,1.37
2018-12-05T05:10:04.202Z,1.77
2018-12-05T05:12:33.126Z,1.93
2018-12-05T05:15:01.777Z,1.57
2018-12-05T05:17:30.296Z,2.07
2018-12-05T05:19:59.205Z,1.40
2018-12-05T05:22:27.773Z,1.50
2018-12-05T05:24:56.624Z,2.40
2018-12-05T05:27:25.205Z,2.43
2018-12-05T05:29:53.821Z,2.40
2018-12-05T05:32:22.777Z,2.60
2018-12-05T05:34:51.449Z,1.93
2018-12-05T05:37:20.385Z,2.10
2018-12-05T05:39:48.905Z,2.27
2018-12-05T05:42:17.461Z,2.25
2018-12-05T05:44:46.045Z,2.00
2018-12-05T05:47:14.568Z,2.20
2018-12-05T05:49:43.125Z,1.53
2018-12-05T05:52:11.957Z,2.10
2018-12-05T05:54:40.545Z,2.33
2018-12-05T05:57:09.377Z,2.90
2018-12-05T05:59:38.037Z,2.17
2018-12-05T06:02:06.921Z,2.13
2018-12-05T06:04:35.521Z,3.03
2018-12-05T06:07:05.093Z,2.30
2018-12-05T06:09:33.974Z,2.33
2018-12-05T06:12:02.877Z,2.47
2018-12-05T06:14:31.385Z,1.80
2018-12-05T06:17:00.269Z,2.10
2018-12-05T06:19:30.846Z,2.63
2018-12-05T06:22:00.081Z,2.20
2018-12-05T06:24:28.701Z,2.00
2018-12-05T06:26:57.357Z,2.10
2018-12-05T06:29:25.913Z,2.47
2018-12-05T06:31:54.441Z,2.57
2018-12-05T06:34:23.324Z,2.13
2018-12-05T06:36:51.860Z,2.70
2018-12-05T06:39:20.405Z,2.43
2018-12-05T06:41:49.380Z,2.50
2018-12-05T06:44:17.949Z,2.83
2018-12-05T06:46:46.753Z,2.50
2018-12-05T06:49:15.316Z,2.57
2018-12-05T06:51:44.113Z,2.30
2018-12-05T06:54:12.642Z,2.93
2018-12-05T06:56:41.241Z,3.20
2018-12-05T06:59:09.908Z,2.67
2018-12-05T07:01:38.467Z,2.80
2018-12-05T07:04:07.029Z,3.10
2018-12-05T07:06:35.880Z,2.70
2018-12-05T07:09:08.029Z,3.57
2018-12-05T07:11:36.577Z,2.33
2018-12-05T07:14:05.168Z,2.47
2018-12-05T07:16:33.723Z,2.90
2018-12-05T07:19:02.252Z,3.33
2018-12-05T07:21:30.776Z,3.90
2018-12-05T07:23:59.935Z,3.30
2018-12-05T07:26:28.712Z,3.27
2018-12-05T07:28:57.240Z,3.30
2018-12-05T07:31:26.168Z,3.90
2018-12-05T07:33:54.692Z,3.67
2018-12-05T07:36:23.219Z,3.40
2018-12-05T07:38:52.232Z,4.07
2018-12-05T07:41:20.820Z,3.87
2018-12-05T07:43:49.368Z,4.07
2018-12-05T07:46:17.972Z,3.97
2018-12-05T07:48:46.540Z,5.77
2018-12-05T07:51:15.409Z,4.73
2018-12-05T07:53:44.927Z,5.17
2018-12-05T07:56:13.489Z,5.03
2018-12-05T07:58:42.024Z,7.80
2018-12-05T08:01:10.552Z,6.13
2018-12-05T08:03:39.076Z,6.10
2018-12-05T08:06:07.972Z,6.60
2018-12-05T08:08:36.540Z,6.60
2018-12-05T08:11:05.102Z,6.30
2018-12-05T08:13:33.632Z,4.50
2018-12-05T08:16:02.211Z,6.93
2018-12-05T08:18:30.788Z,6.30
2018-12-05T08:20:59.355Z,5.97
2018-12-05T08:23:27.923Z,5.87
2018-12-05T08:25:56.442Z,7.40
2018-12-05T08:28:24.959Z,6.43
2018-12-05T08:30:53.590Z,7.07
2018-12-05T08:33:22.179Z,8.07
2018-12-05T08:35:50.693Z,7.60
2018-12-05T08:38:19.326Z,7.87
2018-12-05T08:40:47.827Z,8.13
2018-12-05T08:43:16.642Z,8.07
2018-12-05T08:45:45.262Z,5.40
2018-12-05T08:48:13.786Z,13.90
2018-12-05T08:50:42.322Z,9.33
2018-12-05T08:53:13.666Z,6.87
2018-12-05T08:55:42.217Z,4.03
2018-12-05T08:58:10.738Z,6.73
2018-12-05T09:00:39.290Z,6.97
2018-12-05T09:03:08.110Z,6.27
2018-12-05T09:05:36.922Z,5.80
2018-12-05T09:08:05.512Z,5.87
2018-12-05T09:10:34.122Z,6.10
2018-12-05T09:13:02.623Z,5.87
2018-12-05T09:15:31.194Z,4.53
2018-12-05T09:17:59.978Z,4.87
2018-12-05T09:20:28.515Z,4.20
2018-12-05T09:22:57.105Z,4.67
2018-12-05T09:25:25.621Z,3.60
2018-12-05T09:27:54.826Z,3.35
2018-12-05T09:30:23.386Z,3.37
2018-12-05T09:32:51.962Z,2.95
2018-12-05T09:35:20.478Z,3.10
2018-12-05T09:37:49.030Z,3.50
2018-12-05T09:40:17.894Z,3.00
2018-12-05T09:42:46.459Z,3.65
2018-12-05T09:45:15.746Z,3.00
2018-12-05T09:47:44.586Z,3.00
2018-12-05T09:50:13.198Z,2.33
2018-12-05T09:52:41.814Z,3.25
2018-12-05T09:55:10.370Z,3.27
2018-12-05T09:57:38.994Z,3.55
2018-12-05T10:00:09.606Z,4.22
2018-12-05T10:02:38.101Z,3.25
2018-12-05T10:05:07.965Z,3.77
2018-12-05T10:07:36.590Z,3.87
2018-12-05T10:10:06.469Z,3.85
2018-12-05T10:12:35.026Z,3.42
2018-12-05T10:15:05.081Z,3.60
2018-12-05T10:17:33.602Z,4.45
2018-12-05T10:20:02.142Z,4.00
2018-12-05T10:22:30.905Z,3.83
2018-12-05T10:24:59.437Z,4.05
2018-12-05T10:27:27.953Z,4.03
2018-12-05T10:29:56.506Z,3.85
2018-12-05T10:32:25.039Z,3.62
2018-12-05T10:34:53.614Z,3.15
2018-12-05T10:37:22.779Z,3.33
2018-12-05T10:39:51.305Z,3.33
2018-12-05T10:42:19.825Z,3.50
2018-12-05T10:44:48.386Z,3.20
2018-12-05T10:47:17.289Z,3.45
2018-12-05T10:49:45.809Z,3.02
2018-12-05T10:52:14.428Z,3.50
2018-12-05T10:54:42.992Z,3.95
2018-12-05T10:57:12.582Z,3.27
2018-12-05T10:59:41.268Z,3.47
2018-12-05T11:02:15.925Z,3.28
2018-12-05T11:04:49.824Z,4.10
2018-12-05T11:07:23.612Z,3.90
2018-12-05T11:09:57.608Z,3.67
2018-12-05T11:12:31.484Z,4.03
2018-12-05T11:15:06.064Z,3.17
2018-12-05T11:17:46.644Z,4.05
2018-12-05T11:20:20.666Z,4.17
2018-12-05T11:22:55.054Z,3.92
2018-12-05T11:25:23.789Z,4.33
2018-12-05T11:27:52.532Z,3.12
2018-12-05T11:30:21.152Z,3.58
2018-12-05T11:32:49.747Z,3.25
2018-12-05T11:35:18.461Z,3.45
2018-12-05T11:37:47.656Z,3.72
2018-12-05T11:40:16.431Z,4.25
2018-12-05T11:42:45.363Z,3.75
2018-12-05T11:45:14.276Z,3.30
2018-12-05T11:47:42.872Z,3.47
2018-12-05T11:50:11.500Z,3.80
2018-12-05T11:52:44.895Z,3.40
2018-12-05T11:55:13.472Z,4.28
2018-12-05T11:57:42.061Z,4.15
2018-12-05T12:00:10.676Z,4.00
2018-12-05T12:02:39.308Z,4.58
2018-12-05T12:05:08.115Z,4.22
2018-12-05T12:07:36.823Z,4.35
2018-12-05T12:10:05.855Z,4.20
2018-12-05T12:15:20.659Z,4.37
2018-12-05T12:17:49.532Z,4.28
2018-12-05T12:20:18.471Z,4.67
2018-12-05T12:22:47.252Z,4.58
2018-12-05T12:38:44.488Z,4.70
2018-12-05T12:41:13.128Z,5.67
2018-12-05T12:43:41.691Z,6.03
2018-12-05T12:46:10.407Z,5.42
2018-12-05T12:48:39.555Z,5.42
2018-12-05T12:51:08.187Z,6.25
2018-12-05T12:53:37.173Z,7.05
2018-12-05T13:22:44.980Z,4.12
2018-12-05T13:28:06.749Z,3.72
2018-12-05T13:30:35.345Z,3.80
2018-12-05T13:33:04.854Z,2.70
2018-12-05T13:35:33.506Z,2.92
2018-12-05T13:38:02.058Z,3.45
2018-12-05T13:40:31.118Z,4.05
2018-12-05T13:42:59.970Z,5.80
2018-12-05T13:45:28.898Z,7.33
2018-12-05T13:47:57.762Z,6.37
2018-12-05T13:50:26.312Z,6.28
2018-12-05T14:01:53.482Z,8.13
2018-12-05T14:04:36.962Z,8.27
2018-12-05T14:54:23.583Z,6.27
2018-12-05T14:56:52.514Z,6.33
2018-12-05T14:59:21.450Z,6.93
2018-12-05T15:01:50.302Z,6.40
2018-12-05T15:04:19.386Z,6.60
2018-12-05T15:06:48.126Z,6.60
2018-12-05T15:09:16.998Z,6.97
2018-12-05T15:11:46.018Z,7.92
2018-12-05T15:14:14.726Z,7.33
2018-12-05T15:16:43.665Z,6.23
2018-12-05T15:19:12.715Z,6.80
2018-12-05T15:21:41.642Z,5.35
2018-12-05T15:24:11.514Z,5.83
2018-12-05T15:26:41.234Z,6.10
2018-12-05T15:29:10.296Z,6.30
2018-12-05T15:31:40.254Z,5.67
2018-12-05T15:34:13.386Z,5.57
2018-12-05T15:36:43.769Z,6.83
2018-12-05T15:39:13.758Z,7.63
2018-12-05T15:41:42.945Z,8.20
2018-12-05T15:44:13.290Z,7.20
2018-12-05T15:46:42.613Z,7.13
2018-12-05T15:49:19.206Z,7.10
2018-12-05T15:51:48.482Z,6.50
2018-12-05T15:54:17.146Z,6.90
2018-12-05T15:56:46.063Z,7.17
2018-12-05T15:59:15.078Z,7.03
2018-12-05T16:01:43.874Z,6.87
2018-12-05T16:04:12.920Z,7.20
2018-12-05T16:06:41.622Z,8.20
2018-12-05T16:09:10.434Z,8.23
2018-12-05T16:11:39.266Z,8.10
2018-12-05T16:14:08.091Z,8.40
2018-12-05T16:16:36.810Z,9.53
2018-12-05T16:19:06.019Z,10.30
2018-12-05T16:21:35.138Z,10.73
2018-12-05T16:24:04.042Z,12.33
2018-12-05T16:26:32.910Z,16.13
2018-12-05T16:29:02.299Z,12.60
2018-12-05T16:31:31.119Z,10.67
2018-12-05T16:34:00.070Z,10.53
2018-12-05T16:36:28.986Z,11.37
2018-12-05T16:38:57.890Z,14.43
2018-12-05T16:41:26.754Z,15.40
2018-12-05T16:43:55.603Z,13.27
2018-12-05T16:46:24.458Z,13.80
2018-12-05T16:48:53.430Z,14.43
2018-12-05T16:51:22.330Z,14.97
2018-12-05T16:53:51.303Z,13.83
2018-12-05T16:56:20.216Z,15.55
2018-12-05T16:58:49.386Z,15.37
2018-12-05T17:01:18.289Z,16.42
2018-12-05T17:03:47.234Z,14.60
2018-12-05T17:06:16.134Z,16.90
2018-12-05T17:08:45.022Z,17.73
2018-12-05T17:11:13.893Z,20.13
2018-12-05T17:13:43.125Z,22.70
2018-12-05T17:16:18.041Z,23.59
2018-12-05T17:18:43.994Z,23.17
2018-12-05T17:21:13.121Z,22.17
2018-12-05T17:23:41.910Z,21.87
2018-12-05T17:26:10.974Z,21.70
2018-12-05T17:28:39.895Z,22.30
2018-12-05T17:31:08.990Z,21.73
2018-12-05T17:33:37.866Z,28.53
2018-12-05T17:36:06.740Z,25.13
2018-12-05T17:38:35.418Z,24.20
2018-12-05T17:41:04.184Z,30.23
2018-12-05T17:43:32.866Z,27.90
2018-12-05T17:46:01.382Z,30.33
2018-12-05T17:48:30.119Z,30.23
2018-12-05T17:50:58.972Z,30.70
2018-12-05T17:53:27.978Z,30.33
2018-12-05T17:55:56.725Z,31.37
2018-12-05T17:58:25.701Z,29.00
2018-12-05T18:00:54.592Z,29.00
2018-12-05T18:03:23.190Z,29.57
2018-12-05T18:05:51.845Z,30.27
2018-12-05T18:08:20.466Z,27.00
2018-12-05T18:10:49.237Z,26.37
2018-12-05T18:13:17.990Z,27.13
2018-12-05T18:15:47.007Z,29.20
2018-12-05T18:18:15.894Z,29.03
2018-12-05T18:20:45.045Z,29.13
2018-12-05T18:23:14.186Z,27.20
2018-12-05T18:25:43.451Z,28.23
2018-12-05T18:28:12.318Z,24.53
2018-12-05T18:30:41.143Z,26.70
2018-12-05T18:33:10.022Z,27.77
2018-12-05T18:35:38.861Z,27.57
2018-12-05T18:38:07.845Z,28.50
2018-12-05T18:40:36.749Z,30.27
2018-12-05T18:43:05.578Z,29.47
2018-12-05T18:45:34.386Z,31.73
2018-12-05T18:48:04.361Z,30.40
2018-12-05T18:50:33.261Z,31.53
2018-12-05T18:53:02.074Z,30.50
2018-12-05T18:55:31.001Z,30.27
2018-12-05T18:57:59.902Z,30.70
2018-12-05T19:00:28.713Z,30.83
2018-12-05T19:02:57.525Z,31.10
2018-12-05T19:05:26.373Z,31.83
2018-12-05T19:07:55.349Z,34.50
2018-12-05T19:10:25.597Z,30.70
2018-12-05T19:12:54.468Z,30.50
2018-12-05T19:15:23.324Z,29.90
2018-12-05T19:17:52.204Z,30.70
2018-12-05T19:20:21.034Z,29.10
2018-12-05T19:22:49.720Z,29.97
2018-12-05T19:25:18.472Z,29.00
2018-12-05T19:27:47.178Z,29.80
2018-12-05T19:30:16.008Z,28.47
2018-12-05T19:32:44.916Z,29.47
2018-12-05T19:35:13.989Z,29.87
2018-12-05T19:37:42.864Z,28.60
2018-12-05T19:40:11.560Z,29.00
2018-12-05T19:42:40.680Z,28.87
2018-12-05T19:45:09.877Z,28.73
2018-12-05T19:47:38.769Z,30.20
2018-12-05T19:50:08.074Z,29.80
2018-12-05T19:52:36.925Z,30.30
2018-12-05T19:55:05.787Z,26.63
2018-12-05T19:57:34.685Z,24.67
2018-12-05T20:00:03.622Z,25.07
2018-12-05T20:02:32.469Z,27.40
2018-12-05T20:05:01.307Z,31.30
2018-12-05T20:07:30.129Z,34.50
2018-12-05T20:09:58.970Z,33.13
2018-12-05T20:12:27.926Z,34.97
2018-12-05T20:14:56.889Z,32.60
2018-12-05T20:17:25.769Z,31.63
2018-12-05T20:19:55.206Z,30.40
2018-12-05T20:22:24.109Z,32.10
2018-12-05T20:25:05.057Z,30.63
2018-12-05T20:27:34.110Z,25.67
2018-12-05T20:30:05.889Z,26.83
2018-12-05T20:32:35.182Z,24.87
2018-12-05T20:35:05.109Z,26.67
2018-12-05T20:37:34.177Z,24.93
2018-12-05T20:43:00.273Z,25.87
2018-12-05T20:45:34.769Z,25.13
2018-12-05T20:50:06.515Z,25.60
2018-12-05T20:56:36.623Z,23.57
2018-12-05T20:59:07.409Z,27.67
2018-12-05T21:01:36.499Z,28.97
2018-12-05T21:04:05.493Z,29.87
2018-12-05T21:06:34.436Z,29.80
2018-12-05T21:09:03.508Z,30.93
2018-12-05T21:11:32.985Z,28.63
2018-12-05T21:14:02.185Z,25.23
2018-12-05T21:16:31.077Z,27.47
2018-12-05T21:19:08.833Z,27.40
2018-12-05T21:21:37.893Z,28.27
2018-12-05T21:24:08.282Z,25.87
2018-12-05T21:26:36.165Z,25.57
2018-12-05T21:29:05.205Z,25.87
2018-12-05T21:31:34.973Z,26.13
2018-12-05T21:34:03.865Z,27.37
2018-12-05T21:36:32.777Z,27.37
2018-12-05T21:39:01.609Z,26.03
2018-12-05T21:44:18.109Z,25.33
2018-12-05T21:46:48.374Z,27.60
2018-12-05T21:49:17.241Z,23.33
2018-12-05T22:05:46.809Z,18.97
2018-12-05T22:08:20.157Z,20.50
2018-12-05T22:10:49.378Z,19.90
2018-12-05T22:13:18.644Z,23.30
2018-12-05T22:15:47.585Z,22.97
2018-12-05T22:18:16.497Z,24.67
2018-12-05T22:20:45.422Z,22.73
2018-12-05T22:23:14.369Z,22.77
2018-12-05T22:25:43.450Z,22.63
2018-12-05T22:28:12.317Z,22.07
2018-12-05T22:30:41.182Z,19.83
2018-12-05T22:33:10.965Z,21.70
2018-12-05T22:35:39.849Z,18.07
2018-12-05T22:38:08.789Z,19.47
2018-12-05T22:40:37.785Z,16.97
2018-12-05T22:43:06.617Z,18.87
2018-12-05T22:45:36.785Z,18.57
2018-12-05T22:48:05.717Z,19.83
2018-12-05T22:50:34.929Z,18.20
2018-12-05T22:53:03.897Z,19.23
2018-12-05T22:55:32.845Z,20.13
2018-12-05T22:58:01.713Z,20.23
2018-12-05T23:00:30.833Z,18.57
2018-12-05T23:02:59.765Z,19.67
2018-12-05T23:05:28.794Z,19.37
2018-12-05T23:07:57.686Z,18.07
2018-12-05T23:10:26.648Z,17.47
2018-12-05T23:12:55.869Z,16.23
2018-12-05T23:15:25.037Z,19.40
2018-12-05T23:17:54.065Z,16.50
2018-12-05T23:20:23.040Z,17.70
2018-12-05T23:22:52.249Z,15.77
2018-12-05T23:25:21.196Z,16.83
2018-12-05T23:27:50.173Z,16.23
2018-12-05T23:30:19.273Z,17.10
2018-12-05T23:32:48.209Z,17.07
2018-12-05T23:35:17.177Z,17.30
2018-12-05T23:37:46.254Z,16.13
2018-12-05T23:40:15.243Z,16.07
2018-12-05T23:42:44.289Z,16.20
2018-12-05T23:45:13.183Z,15.90
2018-12-05T23:47:42.089Z,16.60
2018-12-05T23:50:11.093Z,17.63
2018-12-05T23:52:40.024Z,17.20
2018-12-05T23:55:09.084Z,16.33
2018-12-05T23:57:38.346Z,16.40
